createdAt,value
2022-10-06T00:02:28.372Z,16.12
2022-10-06T00:07:33.925Z,16.14
2022-10-06T00:12:48.614Z,16.17
2022-10-06T00:17:54.136Z,16.19
2022-10-06T00:22:59.583Z,16.19
2022-10-06T00:28:05.168Z,16.21
2022-10-06T00:33:16.482Z,16.21
2022-10-06T00:38:23.618Z,16.25
2022-10-06T00:43:41.031Z,16.23
2022-10-06T00:48:51.125Z,16.21
2022-10-06T00:53:58.121Z,16.20
2022-10-06T00:59:03.782Z,16.22
2022-10-06T01:04:12.195Z,16.21
2022-10-06T01:09:19.658Z,16.22
2022-10-06T01:14:26.350Z,16.27
2022-10-06T01:19:37.717Z,16.28
2022-10-06T01:24:45.005Z,16.37
2022-10-06T01:29:55.865Z,16.44
2022-10-06T01:35:01.844Z,16.52
2022-10-06T01:40:09.012Z,16.57
2022-10-06T01:45:14.796Z,16.61
2022-10-06T01:50:20.308Z,16.65
2022-10-06T01:55:26.887Z,16.63
2022-10-06T02:00:34.094Z,16.62
2022-10-06T02:05:41.376Z,16.60
2022-10-06T02:10:46.903Z,16.52
2022-10-06T02:15:59.076Z,16.50
2022-10-06T02:21:05.875Z,16.48
2022-10-06T02:26:12.160Z,16.46
2022-10-06T02:31:18.558Z,16.41
2022-10-06T02:36:24.800Z,16.44
2022-10-06T02:41:31.092Z,16.45
2022-10-06T02:46:37.426Z,16.46
2022-10-06T02:51:43.938Z,16.49
2022-10-06T02:56:50.332Z,16.49
2022-10-06T03:01:55.959Z,16.50
2022-10-06T03:07:01.672Z,16.49
2022-10-06T03:12:08.889Z,16.51
2022-10-06T03:17:16.170Z,16.54
2022-10-06T03:22:23.397Z,16.53
2022-10-06T03:27:30.604Z,16.50
2022-10-06T03:32:38.239Z,16.50
2022-10-06T03:37:45.371Z,16.53
2022-10-06T03:42:51.872Z,16.57
2022-10-06T03:47:58.360Z,16.65
2022-10-06T03:53:04.487Z,16.69
2022-10-06T03:58:10.201Z,16.70
2022-10-06T04:03:19.076Z,16.81
2022-10-06T04:08:26.376Z,16.85
2022-10-06T04:13:32.761Z,16.91
2022-10-06T04:18:39.654Z,16.95
2022-10-06T04:23:45.567Z,16.96
2022-10-06T04:28:51.671Z,16.98
2022-10-06T04:34:00.364Z,17.00
2022-10-06T04:39:11.519Z,17.02
2022-10-06T04:44:18.739Z,17.05
2022-10-06T04:49:25.327Z,17.11
2022-10-06T04:54:33.915Z,17.14
2022-10-06T05:00:05.307Z,17.16
2022-10-06T05:05:09.624Z,17.15
2022-10-06T05:10:15.516Z,17.03
2022-10-06T05:15:21.910Z,17.07
2022-10-06T05:20:27.733Z,17.06
2022-10-06T05:25:33.598Z,17.03
2022-10-06T05:30:41.484Z,16.90
2022-10-06T05:35:58.670Z,16.82
2022-10-06T05:41:10.403Z,16.72
2022-10-06T05:46:21.064Z,16.66
2022-10-06T05:51:31.270Z,16.52
2022-10-06T05:56:39.860Z,16.45
2022-10-06T06:01:45.967Z,16.37
2022-10-06T06:06:59.142Z,16.37
2022-10-06T06:12:05.838Z,16.36
2022-10-06T06:17:12.920Z,16.26
2022-10-06T06:22:18.441Z,16.23
2022-10-06T06:27:26.352Z,16.26
2022-10-06T06:32:32.088Z,16.37
2022-10-06T06:37:38.099Z,16.40
2022-10-06T06:42:43.665Z,16.51
2022-10-06T06:47:59.948Z,16.64
2022-10-06T06:53:05.605Z,16.64
2022-10-06T06:58:12.759Z,16.68
2022-10-06T07:03:38.773Z,16.68
2022-10-06T07:08:31.095Z,16.74
2022-10-06T07:13:38.346Z,16.82
2022-10-06T07:19:03.184Z,16.90
2022-10-06T07:24:28.925Z,16.94
2022-10-06T07:29:34.766Z,16.92
2022-10-06T07:39:49.255Z,17.03
2022-10-06T07:45:13.191Z,16.93
2022-10-06T07:50:19.110Z,16.92
2022-10-06T07:55:25.155Z,16.95
2022-10-06T08:00:43.255Z,17.03
2022-10-06T08:05:51.298Z,17.13
2022-10-06T08:11:01.648Z,17.15
2022-10-06T08:16:18.200Z,17.14
2022-10-06T08:21:29.732Z,17.20
2022-10-06T08:26:36.165Z,17.18
2022-10-06T08:31:41.703Z,17.21
2022-10-06T08:37:02.388Z,17.24
2022-10-06T08:41:56.002Z,17.21
2022-10-06T08:47:07.871Z,17.21
2022-10-06T08:52:32.620Z,17.26
2022-10-06T08:57:47.279Z,17.36
2022-10-06T09:02:53.569Z,17.40
2022-10-06T09:08:32.171Z,17.43
2022-10-06T09:13:40.687Z,17.60
2022-10-06T09:19:09.137Z,17.61
2022-10-06T09:24:03.897Z,17.70
2022-10-06T09:29:09.621Z,17.76
2022-10-06T09:34:23.751Z,17.64
2022-10-06T09:39:35.906Z,17.63
2022-10-06T09:44:56.402Z,17.55
2022-10-06T09:50:15.633Z,17.75
2022-10-06T09:55:23.038Z,17.98
2022-10-06T10:00:31.637Z,18.10
2022-10-06T10:05:40.836Z,18.06
2022-10-06T10:10:46.365Z,18.07
2022-10-06T10:15:58.503Z,18.06
2022-10-06T10:21:08.689Z,18.15
2022-10-06T10:26:44.991Z,18.21
2022-10-06T10:32:17.121Z,18.30
2022-10-06T10:37:26.455Z,18.25
2022-10-06T10:42:35.382Z,18.36
2022-10-06T10:47:45.868Z,18.31
2022-10-06T10:52:53.443Z,18.57
2022-10-06T10:58:20.000Z,18.60
2022-10-06T11:03:25.831Z,18.57
2022-10-06T11:08:43.091Z,18.64
2022-10-06T11:13:52.724Z,18.41
2022-10-06T11:19:16.324Z,18.75
2022-10-06T11:24:41.230Z,18.76
2022-10-06T11:29:59.123Z,18.63
2022-10-06T11:35:06.790Z,18.67
2022-10-06T11:40:31.131Z,18.94
2022-10-06T11:45:51.535Z,18.93
2022-10-06T11:50:59.233Z,18.82
2022-10-06T11:56:20.055Z,18.85
2022-10-06T12:01:39.383Z,19.04
2022-10-06T12:06:48.095Z,19.58
2022-10-06T12:11:55.488Z,19.23
2022-10-06T12:17:12.842Z,19.11
2022-10-06T12:22:20.125Z,19.32
2022-10-06T12:27:37.469Z,19.46
2022-10-06T12:32:49.622Z,19.24
2022-10-06T12:37:58.151Z,19.44
2022-10-06T12:43:21.064Z,19.30
2022-10-06T12:48:32.731Z,19.19
2022-10-06T12:53:50.060Z,19.17
2022-10-06T12:58:56.586Z,19.24
2022-10-06T13:04:02.041Z,19.07
2022-10-06T13:09:16.476Z,19.14
2022-10-06T13:14:21.994Z,19.25
2022-10-06T13:19:30.051Z,19.13
2022-10-06T13:24:35.648Z,19.30
2022-10-06T13:29:41.250Z,19.29
2022-10-06T13:34:47.202Z,19.22
2022-10-06T13:39:52.657Z,19.14
2022-10-06T13:45:02.119Z,19.14
2022-10-06T13:50:10.602Z,19.32
2022-10-06T13:55:27.723Z,19.77
2022-10-06T14:00:36.285Z,19.74
2022-10-06T14:05:44.660Z,19.54
2022-10-06T14:11:13.836Z,19.35
2022-10-06T14:16:25.381Z,19.21
2022-10-06T14:21:45.867Z,19.60
2022-10-06T14:26:53.671Z,19.83
2022-10-06T14:32:10.923Z,19.85
2022-10-06T14:37:16.575Z,19.65
2022-10-06T14:42:23.680Z,19.68
2022-10-06T14:47:30.770Z,19.68
2022-10-06T14:52:37.521Z,19.74
2022-10-06T14:57:42.977Z,19.67
2022-10-06T15:02:48.911Z,19.99
2022-10-06T15:08:12.654Z,19.58
2022-10-06T15:13:18.700Z,19.48
2022-10-06T15:18:26.224Z,19.36
2022-10-06T15:23:31.944Z,19.41
2022-10-06T15:28:55.429Z,19.24
2022-10-06T15:34:03.695Z,19.21
2022-10-06T15:39:16.333Z,19.03
2022-10-06T15:44:22.331Z,19.02
2022-10-06T15:49:30.502Z,19.08
2022-10-06T15:54:38.050Z,18.86
2022-10-06T15:59:44.150Z,18.80
2022-10-06T16:04:58.316Z,18.74
2022-10-06T16:10:03.752Z,18.61
2022-10-06T16:15:09.856Z,18.55
2022-10-06T16:20:16.639Z,18.47
2022-10-06T16:25:22.094Z,18.34
2022-10-06T16:30:27.923Z,18.13
2022-10-06T16:35:33.511Z,18.05
2022-10-06T16:40:38.905Z,17.92
2022-10-06T16:45:44.257Z,17.78
2022-10-06T16:50:49.648Z,17.68
2022-10-06T16:55:56.102Z,17.53
2022-10-06T17:01:01.590Z,17.37
2022-10-06T17:06:10.175Z,17.24
2022-10-06T17:11:20.175Z,17.11
2022-10-06T17:16:28.821Z,16.96
2022-10-06T17:21:55.734Z,16.84
2022-10-06T17:26:44.044Z,16.77
2022-10-06T17:31:53.528Z,16.70
2022-10-06T17:36:59.441Z,16.61
2022-10-06T17:42:05.398Z,16.54
2022-10-06T17:47:12.690Z,16.39
2022-10-06T17:52:24.113Z,16.35
2022-10-06T17:57:29.353Z,16.24
2022-10-06T18:02:34.877Z,16.14
2022-10-06T18:07:40.439Z,16.10
2022-10-06T18:12:47.731Z,16.04
2022-10-06T18:17:53.478Z,15.97
2022-10-06T18:22:58.951Z,15.85
2022-10-06T18:28:04.624Z,15.77
2022-10-06T18:38:17.279Z,15.67
2022-10-06T18:43:22.805Z,15.60
2022-10-06T18:48:46.387Z,15.52
2022-10-06T18:53:53.850Z,15.45
2022-10-06T18:59:01.847Z,15.41
2022-10-06T19:04:09.379Z,15.40
2022-10-06T19:09:16.976Z,15.36
2022-10-06T19:14:26.525Z,15.31
2022-10-06T19:19:32.692Z,15.26
2022-10-06T19:24:41.652Z,15.20
2022-10-06T19:29:48.832Z,15.17
2022-10-06T19:34:56.493Z,15.10
2022-10-06T19:40:02.059Z,15.08
2022-10-06T19:45:09.359Z,15.09
2022-10-06T19:50:17.319Z,15.07
2022-10-06T19:55:28.822Z,15.01
2022-10-06T20:00:34.418Z,14.94
2022-10-06T20:05:39.856Z,14.90
2022-10-06T20:10:45.308Z,14.84
2022-10-06T20:15:50.976Z,14.81
2022-10-06T20:21:00.020Z,14.74
2022-10-06T20:26:13.974Z,14.73
2022-10-06T20:31:26.320Z,14.73
2022-10-06T20:36:33.310Z,14.75
2022-10-06T20:41:38.982Z,14.72
2022-10-06T20:46:44.895Z,14.70
2022-10-06T20:51:52.063Z,14.64
2022-10-06T20:56:57.678Z,14.59
2022-10-06T21:02:03.301Z,14.48
2022-10-06T21:07:08.703Z,14.43
2022-10-06T21:12:15.755Z,14.97
2022-10-06T21:17:21.193Z,14.60
2022-10-06T21:22:27.180Z,14.51
2022-10-06T21:27:32.670Z,14.46
2022-10-06T21:32:38.313Z,14.44
2022-10-06T21:37:44.700Z,14.38
2022-10-06T21:42:50.426Z,14.28
2022-10-06T21:47:55.908Z,14.19
2022-10-06T21:53:01.469Z,14.14
2022-10-06T21:58:06.937Z,14.09
2022-10-06T22:03:12.998Z,14.08
2022-10-06T22:08:18.527Z,14.07
2022-10-06T22:13:23.934Z,14.06
2022-10-06T22:18:29.481Z,14.02
2022-10-06T22:23:34.888Z,14.00
2022-10-06T22:28:42.342Z,13.91
2022-10-06T22:33:53.725Z,13.89
2022-10-06T22:38:59.268Z,13.86
2022-10-06T22:44:04.885Z,13.82
2022-10-06T22:49:10.738Z,13.80
2022-10-06T22:54:22.230Z,13.77
2022-10-06T22:59:28.208Z,13.67
2022-10-06T23:04:33.794Z,13.63
2022-10-06T23:09:40.897Z,13.62
2022-10-06T23:14:46.380Z,13.62
2022-10-06T23:19:51.847Z,13.58
2022-10-06T23:24:57.520Z,13.53
2022-10-06T23:30:04.029Z,13.45
2022-10-06T23:35:11.883Z,13.41
2022-10-06T23:40:17.779Z,13.35
2022-10-06T23:45:23.307Z,13.32
2022-10-06T23:50:29.671Z,13.30
2022-10-06T23:55:35.706Z,13.25
